sensor_id;sensor_type;location;lat;lon;timestamp;temperature;humidity
1602;DHT22;794;48.592;9.634;2023-05-10T00:00:28;14.00;1.00
1602;DHT22;794;48.592;9.634;2023-05-10T00:02:55;13.70;1.00
1602;DHT22;794;48.592;9.634;2023-05-10T00:05:22;14.10;1.00
1602;DHT22;794;48.592;9.634;2023-05-10T00:07:50;14.10;1.00
1602;DHT22;794;48.592;9.634;2023-05-10T00:10:17;14.10;1.00
1602;DHT22;794;48.592;9.634;2023-05-10T00:12:44;14.10;1.00
1602;DHT22;794;48.592;9.634;2023-05-10T00:15:11;14.10;1.00
1602;DHT22;794;48.592;9.634;2023-05-10T00:17:38;14.10;1.00
1602;DHT22;794;48.592;9.634;2023-05-10T00:20:08;14.10;1.00
1602;DHT22;794;48.592;9.634;2023-05-10T00:22:35;14.10;1.00
1602;DHT22;794;48.592;9.634;2023-05-10T00:25:04;14.10;1.00
1602;DHT22;794;48.592;9.634;2023-05-10T00:27:33;14.00;1.00
1602;DHT22;794;48.592;9.634;2023-05-10T00:30:00;13.60;1.00
1602;DHT22;794;48.592;9.634;2023-05-10T00:32:27;13.80;1.00
1602;DHT22;794;48.592;9.634;2023-05-10T00:34:54;14.10;1.00
1602;DHT22;794;48.592;9.634;2023-05-10T00:37:24;13.60;1.00
1602;DHT22;794;48.592;9.634;2023-05-10T00:39:54;14.10;1.00
1602;DHT22;794;48.592;9.634;2023-05-10T00:42:27;14.00;1.00
1602;DHT22;794;48.592;9.634;2023-05-10T00:44:54;14.00;1.00
1602;DHT22;794;48.592;9.634;2023-05-10T00:47:22;13.70;1.00
1602;DHT22;794;48.592;9.634;2023-05-10T00:54:49;14.00;1.00
1602;DHT22;794;48.592;9.634;2023-05-10T00:59:48;11.70;1.00
1602;DHT22;794;48.592;9.634;2023-05-10T01:09:48;14.10;1.00
1602;DHT22;794;48.592;9.634;2023-05-10T01:12:20;14.10;1.00
1602;DHT22;794;48.592;9.634;2023-05-10T01:14:49;14.00;1.00
1602;DHT22;794;48.592;9.634;2023-05-10T01:19:43;13.90;1.00
1602;DHT22;794;48.592;9.634;2023-05-10T01:22:25;13.60;1.00
1602;DHT22;794;48.592;9.634;2023-05-10T01:25:28;13.90;1.00
1602;DHT22;794;48.592;9.634;2023-05-10T01:31:08;13.40;1.00
1602;DHT22;794;48.592;9.634;2023-05-10T01:33:44;13.30;1.00
1602;DHT22;794;48.592;9.634;2023-05-10T01:36:19;12.90;1.00
1602;DHT22;794;48.592;9.634;2023-05-10T01:38:57;13.00;1.00
1602;DHT22;794;48.592;9.634;2023-05-10T01:41:35;13.00;1.00
1602;DHT22;794;48.592;9.634;2023-05-10T01:44:11;13.20;1.00
1602;DHT22;794;48.592;9.634;2023-05-10T01:49:19;13.10;1.00
1602;DHT22;794;48.592;9.634;2023-05-10T01:51:51;13.20;1.00
1602;DHT22;794;48.592;9.634;2023-05-10T01:54:21;13.00;1.00
1602;DHT22;794;48.592;9.634;2023-05-10T01:56:55;13.00;1.00
1602;DHT22;794;48.592;9.634;2023-05-10T01:59:23;12.80;1.00
1602;DHT22;794;48.592;9.634;2023-05-10T02:01:58;12.50;1.00
1602;DHT22;794;48.592;9.634;2023-05-10T02:04:33;12.60;1.00
1602;DHT22;794;48.592;9.634;2023-05-10T02:07:04;12.40;1.00
1602;DHT22;794;48.592;9.634;2023-05-10T02:09:33;12.40;1.00
1602;DHT22;794;48.592;9.634;2023-05-10T02:12:06;12.60;1.00
1602;DHT22;794;48.592;9.634;2023-05-10T02:14:39;12.90;1.00
1602;DHT22;794;48.592;9.634;2023-05-10T02:17:07;12.70;1.00
1602;DHT22;794;48.592;9.634;2023-05-10T02:19:38;12.50;1.00
1602;DHT22;794;48.592;9.634;2023-05-10T02:22:09;12.50;1.00
1602;DHT22;794;48.592;9.634;2023-05-10T02:27:06;12.30;1.00
1602;DHT22;794;48.592;9.634;2023-05-10T02:29:38;12.30;1.00
1602;DHT22;794;48.592;9.634;2023-05-10T02:32:06;12.70;1.00
1602;DHT22;794;48.592;9.634;2023-05-10T02:34:37;12.00;1.00
1602;DHT22;794;48.592;9.634;2023-05-10T02:37:08;12.70;1.00
1602;DHT22;794;48.592;9.634;2023-05-10T02:42:04;12.40;1.00
1602;DHT22;794;48.592;9.634;2023-05-10T02:52:06;12.40;1.00
1602;DHT22;794;48.592;9.634;2023-05-10T02:54:39;12.60;1.00
1602;DHT22;794;48.592;9.634;2023-05-10T02:57:11;12.40;1.00
1602;DHT22;794;48.592;9.634;2023-05-10T02:59:40;12.50;1.00
1602;DHT22;794;48.592;9.634;2023-05-10T03:02:12;12.50;1.00
1602;DHT22;794;48.592;9.634;2023-05-10T03:04:39;12.40;1.00
1602;DHT22;794;48.592;9.634;2023-05-10T03:07:07;12.30;1.00
1602;DHT22;794;48.592;9.634;2023-05-10T03:09:34;12.70;1.00
1602;DHT22;794;48.592;9.634;2023-05-10T03:12:07;12.70;1.00
1602;DHT22;794;48.592;9.634;2023-05-10T03:14:47;12.60;1.00
1602;DHT22;794;48.592;9.634;2023-05-10T03:17:22;12.50;1.00
1602;DHT22;794;48.592;9.634;2023-05-10T03:19:53;12.70;1.00
1602;DHT22;794;48.592;9.634;2023-05-10T03:22:25;12.50;1.00
1602;DHT22;794;48.592;9.634;2023-05-10T03:24:56;12.50;1.00
1602;DHT22;794;48.592;9.634;2023-05-10T03:27:26;12.50;1.00
1602;DHT22;794;48.592;9.634;2023-05-10T03:29:57;12.60;1.00
1602;DHT22;794;48.592;9.634;2023-05-10T03:32:24;12.80;1.00
1602;DHT22;794;48.592;9.634;2023-05-10T03:35:07;12.40;1.00
1602;DHT22;794;48.592;9.634;2023-05-10T03:37:37;11.10;1.00
1602;DHT22;794;48.592;9.634;2023-05-10T03:40:06;12.90;1.00
1602;DHT22;794;48.592;9.634;2023-05-10T03:42:45;12.60;1.00
1602;DHT22;794;48.592;9.634;2023-05-10T03:45:21;13.00;1.00
1602;DHT22;794;48.592;9.634;2023-05-10T03:50:19;12.50;1.00
1602;DHT22;794;48.592;9.634;2023-05-10T03:52:50;12.80;1.00
1602;DHT22;794;48.592;9.634;2023-05-10T03:55:17;12.90;1.00
1602;DHT22;794;48.592;9.634;2023-05-10T03:57:48;12.80;1.00
1602;DHT22;794;48.592;9.634;2023-05-10T04:00:21;13.00;1.00
1602;DHT22;794;48.592;9.634;2023-05-10T04:02:48;12.80;1.00
1602;DHT22;794;48.592;9.634;2023-05-10T04:05:25;13.20;1.00
1602;DHT22;794;48.592;9.634;2023-05-10T04:07:57;12.80;1.00
1602;DHT22;794;48.592;9.634;2023-05-10T04:18:14;12.70;1.00
1602;DHT22;794;48.592;9.634;2023-05-10T04:23:12;12.90;1.00
1602;DHT22;794;48.592;9.634;2023-05-10T04:25:44;13.10;1.00
1602;DHT22;794;48.592;9.634;2023-05-10T04:28:13;12.60;1.00
1602;DHT22;794;48.592;9.634;2023-05-10T04:30:40;12.70;1.00
1602;DHT22;794;48.592;9.634;2023-05-10T04:33:08;11.40;1.00
1602;DHT22;794;48.592;9.634;2023-05-10T04:35:35;13.00;1.00
1602;DHT22;794;48.592;9.634;2023-05-10T04:38:02;12.90;1.00
1602;DHT22;794;48.592;9.634;2023-05-10T04:40:30;13.20;1.00
1602;DHT22;794;48.592;9.634;2023-05-10T04:42:57;13.20;1.00
1602;DHT22;794;48.592;9.634;2023-05-10T04:45:24;13.30;1.00
1602;DHT22;794;48.592;9.634;2023-05-10T04:47:53;13.20;1.00
1602;DHT22;794;48.592;9.634;2023-05-10T04:50:20;13.30;1.00
1602;DHT22;794;48.592;9.634;2023-05-10T04:52:47;13.00;1.00
1602;DHT22;794;48.592;9.634;2023-05-10T04:55:14;13.10;1.00
1602;DHT22;794;48.592;9.634;2023-05-10T04:57:48;13.20;1.00
1602;DHT22;794;48.592;9.634;2023-05-10T05:00:15;13.00;1.00
1602;DHT22;794;48.592;9.634;2023-05-10T05:02:43;13.10;1.00
1602;DHT22;794;48.592;9.634;2023-05-10T05:05:10;13.30;1.00
1602;DHT22;794;48.592;9.634;2023-05-10T05:07:37;13.10;1.00
1602;DHT22;794;48.592;9.634;2023-05-10T05:10:08;13.40;1.00
1602;DHT22;794;48.592;9.634;2023-05-10T05:12:35;13.50;1.00
1602;DHT22;794;48.592;9.634;2023-05-10T05:15:04;13.70;1.00
1602;DHT22;794;48.592;9.634;2023-05-10T05:17:33;13.70;1.00
1602;DHT22;794;48.592;9.634;2023-05-10T05:20:00;13.60;1.00
1602;DHT22;794;48.592;9.634;2023-05-10T05:22:27;13.80;1.00
1602;DHT22;794;48.592;9.634;2023-05-10T05:24:54;13.70;1.00
1602;DHT22;794;48.592;9.634;2023-05-10T05:27:22;13.90;1.00
1602;DHT22;794;48.592;9.634;2023-05-10T05:29:49;14.00;1.00
1602;DHT22;794;48.592;9.634;2023-05-10T05:32:19;14.10;1.00
1602;DHT22;794;48.592;9.634;2023-05-10T05:34:49;14.20;1.00
1602;DHT22;794;48.592;9.634;2023-05-10T05:37:17;11.70;1.00
1602;DHT22;794;48.592;9.634;2023-05-10T05:39:44;14.00;1.00
1602;DHT22;794;48.592;9.634;2023-05-10T05:42:12;14.00;1.00
1602;DHT22;794;48.592;9.634;2023-05-10T05:44:40;13.80;1.00
1602;DHT22;794;48.592;9.634;2023-05-10T05:47:07;13.90;1.00
1602;DHT22;794;48.592;9.634;2023-05-10T05:49:37;14.00;1.00
1602;DHT22;794;48.592;9.634;2023-05-10T05:52:05;13.60;1.00
1602;DHT22;794;48.592;9.634;2023-05-10T05:54:34;14.00;1.00
1602;DHT22;794;48.592;9.634;2023-05-10T05:57:03;14.30;1.00
1602;DHT22;794;48.592;9.634;2023-05-10T05:59:30;14.40;1.00
1602;DHT22;794;48.592;9.634;2023-05-10T06:01:59;14.30;1.00
1602;DHT22;794;48.592;9.634;2023-05-10T06:04:28;14.30;1.00
1602;DHT22;794;48.592;9.634;2023-05-10T06:06:59;14.50;1.00
1602;DHT22;794;48.592;9.634;2023-05-10T06:09:29;13.60;1.00
1602;DHT22;794;48.592;9.634;2023-05-10T06:11:56;14.20;1.00
1602;DHT22;794;48.592;9.634;2023-05-10T06:14:23;14.60;1.00
1602;DHT22;794;48.592;9.634;2023-05-10T06:16:51;14.70;1.00
1602;DHT22;794;48.592;9.634;2023-05-10T06:19:18;14.70;1.00
1602;DHT22;794;48.592;9.634;2023-05-10T06:21:45;14.80;1.00
1602;DHT22;794;48.592;9.634;2023-05-10T06:24:14;14.50;1.00
1602;DHT22;794;48.592;9.634;2023-05-10T06:26:44;14.40;1.00
1602;DHT22;794;48.592;9.634;2023-05-10T06:29:11;13.90;1.00
1602;DHT22;794;48.592;9.634;2023-05-10T06:31:40;13.70;1.00
1602;DHT22;794;48.592;9.634;2023-05-10T06:34:07;13.40;1.00
1602;DHT22;794;48.592;9.634;2023-05-10T06:36:34;13.90;1.00
1602;DHT22;794;48.592;9.634;2023-05-10T06:39:01;14.00;1.00
1602;DHT22;794;48.592;9.634;2023-05-10T06:41:30;13.70;1.00
1602;DHT22;794;48.592;9.634;2023-05-10T06:43:57;13.60;1.00
1602;DHT22;794;48.592;9.634;2023-05-10T06:46:23;15.80;1.00
1602;DHT22;794;48.592;9.634;2023-05-10T06:48:50;14.50;1.00
1602;DHT22;794;48.592;9.634;2023-05-10T06:51:17;14.40;1.00
1602;DHT22;794;48.592;9.634;2023-05-10T06:53:45;14.70;1.00
1602;DHT22;794;48.592;9.634;2023-05-10T06:56:13;15.00;1.00
1602;DHT22;794;48.592;9.634;2023-05-10T06:58:42;15.20;1.00
1602;DHT22;794;48.592;9.634;2023-05-10T07:01:08;15.10;1.00
1602;DHT22;794;48.592;9.634;2023-05-10T07:03:35;15.30;1.00
1602;DHT22;794;48.592;9.634;2023-05-10T07:06:03;15.50;1.00
1602;DHT22;794;48.592;9.634;2023-05-10T07:08:30;15.70;1.00
1602;DHT22;794;48.592;9.634;2023-05-10T07:11:01;15.50;1.00
1602;DHT22;794;48.592;9.634;2023-05-10T07:13:29;15.60;1.00
1602;DHT22;794;48.592;9.634;2023-05-10T07:15:57;15.60;1.00
1602;DHT22;794;48.592;9.634;2023-05-10T07:18:24;15.60;1.00
1602;DHT22;794;48.592;9.634;2023-05-10T07:20:54;15.40;1.00
1602;DHT22;794;48.592;9.634;2023-05-10T07:25:50;15.30;1.00
1602;DHT22;794;48.592;9.634;2023-05-10T07:28:18;15.00;1.00
1602;DHT22;794;48.592;9.634;2023-05-10T07:30:45;15.00;1.00
1602;DHT22;794;48.592;9.634;2023-05-10T07:33:14;15.00;1.00
1602;DHT22;794;48.592;9.634;2023-05-10T07:35:41;15.10;1.00
1602;DHT22;794;48.592;9.634;2023-05-10T07:38:08;14.40;1.00
1602;DHT22;794;48.592;9.634;2023-05-10T07:40:36;15.10;1.00
1602;DHT22;794;48.592;9.634;2023-05-10T07:43:03;15.20;1.00
1602;DHT22;794;48.592;9.634;2023-05-10T07:45:30;15.30;1.00
1602;DHT22;794;48.592;9.634;2023-05-10T07:47:57;15.30;1.00
1602;DHT22;794;48.592;9.634;2023-05-10T07:50:25;15.10;1.00
1602;DHT22;794;48.592;9.634;2023-05-10T07:52:52;14.80;1.00
1602;DHT22;794;48.592;9.634;2023-05-10T07:55:19;14.70;1.00
1602;DHT22;794;48.592;9.634;2023-05-10T08:00:17;14.90;1.00
1602;DHT22;794;48.592;9.634;2023-05-10T08:02:44;15.20;1.00
1602;DHT22;794;48.592;9.634;2023-05-10T08:05:11;15.50;1.00
1602;DHT22;794;48.592;9.634;2023-05-10T08:07:39;15.80;1.00
1602;DHT22;794;48.592;9.634;2023-05-10T08:10:08;16.20;1.00
1602;DHT22;794;48.592;9.634;2023-05-10T08:12:36;16.70;1.00
1602;DHT22;794;48.592;9.634;2023-05-10T08:15:04;16.90;1.00
1602;DHT22;794;48.592;9.634;2023-05-10T08:19:58;17.40;1.00
1602;DHT22;794;48.592;9.634;2023-05-10T08:22:25;17.60;1.00
1602;DHT22;794;48.592;9.634;2023-05-10T08:24:53;17.80;1.00
1602;DHT22;794;48.592;9.634;2023-05-10T08:27:20;17.50;1.00
1602;DHT22;794;48.592;9.634;2023-05-10T08:32:14;17.90;1.00
1602;DHT22;794;48.592;9.634;2023-05-10T08:34:41;17.70;1.00
1602;DHT22;794;48.592;9.634;2023-05-10T08:37:08;18.00;1.00
1602;DHT22;794;48.592;9.634;2023-05-10T08:39:38;18.30;1.00
1602;DHT22;794;48.592;9.634;2023-05-10T08:42:07;18.00;1.00
1602;DHT22;794;48.592;9.634;2023-05-10T08:44:36;18.10;1.00
1602;DHT22;794;48.592;9.634;2023-05-10T08:47:05;18.40;1.00
1602;DHT22;794;48.592;9.634;2023-05-10T08:52:03;19.00;1.00
1602;DHT22;794;48.592;9.634;2023-05-10T08:54:32;19.00;1.00
1602;DHT22;794;48.592;9.634;2023-05-10T08:59:28;20.00;1.00
1602;DHT22;794;48.592;9.634;2023-05-10T09:01:57;19.80;1.00
1602;DHT22;794;48.592;9.634;2023-05-10T09:04:24;19.70;1.00
1602;DHT22;794;48.592;9.634;2023-05-10T09:09:19;19.30;1.00
1602;DHT22;794;48.592;9.634;2023-05-10T09:14:15;19.30;1.00
1602;DHT22;794;48.592;9.634;2023-05-10T09:16:45;19.20;1.00
1602;DHT22;794;48.592;9.634;2023-05-10T09:19:13;19.10;1.00
1602;DHT22;794;48.592;9.634;2023-05-10T09:21:40;18.80;1.00
1602;DHT22;794;48.592;9.634;2023-05-10T09:24:08;19.20;1.00
1602;DHT22;794;48.592;9.634;2023-05-10T09:26:35;19.80;1.00
1602;DHT22;794;48.592;9.634;2023-05-10T09:29:02;19.90;1.00
1602;DHT22;794;48.592;9.634;2023-05-10T09:31:45;19.80;1.00
1602;DHT22;794;48.592;9.634;2023-05-10T09:34:16;19.80;1.00
1602;DHT22;794;48.592;9.634;2023-05-10T09:36:56;18.90;1.00
1602;DHT22;794;48.592;9.634;2023-05-10T09:39:36;18.40;1.00
1602;DHT22;794;48.592;9.634;2023-05-10T09:42:08;18.00;1.00
1602;DHT22;794;48.592;9.634;2023-05-10T09:44:35;18.10;1.00
1602;DHT22;794;48.592;9.634;2023-05-10T09:47:04;18.70;1.00
1602;DHT22;794;48.592;9.634;2023-05-10T09:52:03;18.10;1.00
1602;DHT22;794;48.592;9.634;2023-05-10T09:54:30;18.50;1.00
1602;DHT22;794;48.592;9.634;2023-05-10T09:56:57;18.30;1.00
1602;DHT22;794;48.592;9.634;2023-05-10T09:59:25;18.80;1.00
1602;DHT22;794;48.592;9.634;2023-05-10T10:01:53;18.90;1.00
1602;DHT22;794;48.592;9.634;2023-05-10T10:04:23;18.50;1.00
1602;DHT22;794;48.592;9.634;2023-05-10T10:07:00;18.90;1.00
1602;DHT22;794;48.592;9.634;2023-05-10T10:09:28;19.00;1.00
1602;DHT22;794;48.592;9.634;2023-05-10T10:11:55;18.60;1.00
1602;DHT22;794;48.592;9.634;2023-05-10T10:14:24;18.90;1.00
1602;DHT22;794;48.592;9.634;2023-05-10T10:19:19;19.50;1.00
1602;DHT22;794;48.592;9.634;2023-05-10T10:21:48;19.20;1.00
1602;DHT22;794;48.592;9.634;2023-05-10T10:24:18;19.20;1.00
1602;DHT22;794;48.592;9.634;2023-05-10T10:26:46;18.90;1.00
1602;DHT22;794;48.592;9.634;2023-05-10T10:29:21;19.10;1.00
1602;DHT22;794;48.592;9.634;2023-05-10T10:31:57;18.80;1.00
1602;DHT22;794;48.592;9.634;2023-05-10T10:34:27;18.50;1.00
1602;DHT22;794;48.592;9.634;2023-05-10T10:36:56;18.80;1.00
1602;DHT22;794;48.592;9.634;2023-05-10T10:39:24;17.20;1.00
1602;DHT22;794;48.592;9.634;2023-05-10T10:41:52;17.50;1.00
1602;DHT22;794;48.592;9.634;2023-05-10T10:44:24;17.90;1.00
1602;DHT22;794;48.592;9.634;2023-05-10T10:47:10;18.10;1.00
1602;DHT22;794;48.592;9.634;2023-05-10T10:49:52;18.20;1.00
1602;DHT22;794;48.592;9.634;2023-05-10T10:52:25;18.20;1.00
1602;DHT22;794;48.592;9.634;2023-05-10T10:54:59;18.30;1.00
1602;DHT22;794;48.592;9.634;2023-05-10T10:57:27;18.20;1.00
1602;DHT22;794;48.592;9.634;2023-05-10T11:00:26;18.20;1.00
1602;DHT22;794;48.592;9.634;2023-05-10T11:02:56;17.80;1.00
1602;DHT22;794;48.592;9.634;2023-05-10T11:05:34;17.70;1.00
1602;DHT22;794;48.592;9.634;2023-05-10T11:08:12;17.50;1.00
1602;DHT22;794;48.592;9.634;2023-05-10T11:10:49;16.90;1.00
1602;DHT22;794;48.592;9.634;2023-05-10T11:13:30;16.70;1.00
1602;DHT22;794;48.592;9.634;2023-05-10T11:15:58;16.10;1.00
1602;DHT22;794;48.592;9.634;2023-05-10T11:18:27;16.30;1.00
1602;DHT22;794;48.592;9.634;2023-05-10T11:20:58;16.40;1.00
1602;DHT22;794;48.592;9.634;2023-05-10T11:23:31;16.90;1.00
1602;DHT22;794;48.592;9.634;2023-05-10T11:26:00;16.90;1.00
1602;DHT22;794;48.592;9.634;2023-05-10T11:28:28;17.30;1.00
1602;DHT22;794;48.592;9.634;2023-05-10T11:30:55;17.60;1.00
1602;DHT22;794;48.592;9.634;2023-05-10T11:33:23;18.00;1.00
1602;DHT22;794;48.592;9.634;2023-05-10T11:35:50;18.60;1.00
1602;DHT22;794;48.592;9.634;2023-05-10T11:40:45;18.10;1.00
1602;DHT22;794;48.592;9.634;2023-05-10T11:43:12;18.10;1.00
1602;DHT22;794;48.592;9.634;2023-05-10T11:45:41;18.20;1.00
1602;DHT22;794;48.592;9.634;2023-05-10T11:48:11;19.40;1.00
1602;DHT22;794;48.592;9.634;2023-05-10T11:50:38;16.90;1.00
1602;DHT22;794;48.592;9.634;2023-05-10T11:53:05;14.80;1.00
1602;DHT22;794;48.592;9.634;2023-05-10T11:55:33;16.00;1.00
1602;DHT22;794;48.592;9.634;2023-05-10T11:58:02;15.60;1.00
1602;DHT22;794;48.592;9.634;2023-05-10T12:00:30;15.50;1.00
1602;DHT22;794;48.592;9.634;2023-05-10T12:02:57;15.50;1.00
1602;DHT22;794;48.592;9.634;2023-05-10T12:05:25;18.00;1.00
1602;DHT22;794;48.592;9.634;2023-05-10T12:07:53;15.80;1.00
1602;DHT22;794;48.592;9.634;2023-05-10T12:13:11;14.60;1.00
1602;DHT22;794;48.592;9.634;2023-05-10T12:15:39;14.30;1.00
1602;DHT22;794;48.592;9.634;2023-05-10T12:18:08;14.50;1.00
1602;DHT22;794;48.592;9.634;2023-05-10T12:20:36;14.30;1.00
1602;DHT22;794;48.592;9.634;2023-05-10T12:23:03;14.20;1.00
1602;DHT22;794;48.592;9.634;2023-05-10T12:25:32;14.20;1.00
1602;DHT22;794;48.592;9.634;2023-05-10T12:28:00;14.20;1.00
1602;DHT22;794;48.592;9.634;2023-05-10T12:30:32;13.50;1.00
1602;DHT22;794;48.592;9.634;2023-05-10T12:33:06;13.10;1.00
1602;DHT22;794;48.592;9.634;2023-05-10T12:35:43;12.70;1.00
1602;DHT22;794;48.592;9.634;2023-05-10T12:38:27;12.50;1.00
1602;DHT22;794;48.592;9.634;2023-05-10T12:40:59;12.50;1.00
1602;DHT22;794;48.592;9.634;2023-05-10T12:43:28;12.70;1.00
1602;DHT22;794;48.592;9.634;2023-05-10T12:45:57;13.00;1.00
1602;DHT22;794;48.592;9.634;2023-05-10T12:48:24;13.10;1.00
1602;DHT22;794;48.592;9.634;2023-05-10T12:50:54;13.40;1.00
1602;DHT22;794;48.592;9.634;2023-05-10T12:53:22;13.30;1.00
1602;DHT22;794;48.592;9.634;2023-05-10T12:55:49;13.80;1.00
1602;DHT22;794;48.592;9.634;2023-05-10T12:58:19;13.80;1.00
1602;DHT22;794;48.592;9.634;2023-05-10T13:00:49;13.30;1.00
1602;DHT22;794;48.592;9.634;2023-05-10T13:03:23;14.50;1.00
1602;DHT22;794;48.592;9.634;2023-05-10T13:05:50;14.20;1.00
1602;DHT22;794;48.592;9.634;2023-05-10T13:08:17;15.00;1.00
1602;DHT22;794;48.592;9.634;2023-05-10T13:10:44;14.70;1.00
1602;DHT22;794;48.592;9.634;2023-05-10T13:13:15;14.90;1.00
1602;DHT22;794;48.592;9.634;2023-05-10T13:15:43;16.00;1.00
1602;DHT22;794;48.592;9.634;2023-05-10T13:18:10;15.70;1.00
1602;DHT22;794;48.592;9.634;2023-05-10T13:20:41;15.80;1.00
1602;DHT22;794;48.592;9.634;2023-05-10T13:23:09;15.80;1.00
1602;DHT22;794;48.592;9.634;2023-05-10T13:25:39;16.00;1.00
1602;DHT22;794;48.592;9.634;2023-05-10T13:28:07;16.10;1.00
1602;DHT22;794;48.592;9.634;2023-05-10T13:30:34;16.40;1.00
1602;DHT22;794;48.592;9.634;2023-05-10T13:33:04;16.40;1.00
1602;DHT22;794;48.592;9.634;2023-05-10T13:35:31;14.70;1.00
1602;DHT22;794;48.592;9.634;2023-05-10T13:37:59;16.50;1.00
1602;DHT22;794;48.592;9.634;2023-05-10T13:40:29;16.60;1.00
1602;DHT22;794;48.592;9.634;2023-05-10T13:42:58;16.70;1.00
1602;DHT22;794;48.592;9.634;2023-05-10T13:45:25;17.00;1.00
1602;DHT22;794;48.592;9.634;2023-05-10T13:47:53;16.90;1.00
1602;DHT22;794;48.592;9.634;2023-05-10T13:50:20;16.90;1.00
1602;DHT22;794;48.592;9.634;2023-05-10T13:52:49;17.50;1.00
1602;DHT22;794;48.592;9.634;2023-05-10T13:55:18;17.40;1.00
1602;DHT22;794;48.592;9.634;2023-05-10T13:57:44;17.40;1.00
1602;DHT22;794;48.592;9.634;2023-05-10T14:00:12;17.50;1.00
1602;DHT22;794;48.592;9.634;2023-05-10T14:02:39;17.20;1.00
1602;DHT22;794;48.592;9.634;2023-05-10T14:05:07;17.30;1.00
1602;DHT22;794;48.592;9.634;2023-05-10T14:07:34;17.20;1.00
1602;DHT22;794;48.592;9.634;2023-05-10T14:10:01;17.40;1.00
1602;DHT22;794;48.592;9.634;2023-05-10T14:12:29;17.30;1.00
1602;DHT22;794;48.592;9.634;2023-05-10T14:14:59;17.30;1.00
1602;DHT22;794;48.592;9.634;2023-05-10T14:17:26;17.50;1.00
1602;DHT22;794;48.592;9.634;2023-05-10T14:19:53;17.30;1.00
1602;DHT22;794;48.592;9.634;2023-05-10T14:22:20;17.60;1.00
1602;DHT22;794;48.592;9.634;2023-05-10T14:24:48;17.70;1.00
1602;DHT22;794;48.592;9.634;2023-05-10T14:27:15;17.50;1.00
1602;DHT22;794;48.592;9.634;2023-05-10T14:29:43;17.50;1.00
1602;DHT22;794;48.592;9.634;2023-05-10T14:32:10;17.20;1.00
1602;DHT22;794;48.592;9.634;2023-05-10T14:34:37;17.00;1.00
1602;DHT22;794;48.592;9.634;2023-05-10T14:37:04;17.00;1.00
1602;DHT22;794;48.592;9.634;2023-05-10T14:39:31;17.20;1.00
1602;DHT22;794;48.592;9.634;2023-05-10T14:41:58;16.60;1.00
1602;DHT22;794;48.592;9.634;2023-05-10T14:44:25;16.80;1.00
1602;DHT22;794;48.592;9.634;2023-05-10T14:46:53;16.70;1.00
1602;DHT22;794;48.592;9.634;2023-05-10T14:49:22;16.50;1.00
1602;DHT22;794;48.592;9.634;2023-05-10T14:51:51;16.30;1.00
1602;DHT22;794;48.592;9.634;2023-05-10T14:54:18;16.30;1.00
1602;DHT22;794;48.592;9.634;2023-05-10T14:56:45;16.60;1.00
1602;DHT22;794;48.592;9.634;2023-05-10T14:59:13;16.50;1.00
1602;DHT22;794;48.592;9.634;2023-05-10T15:01:40;16.40;1.00
1602;DHT22;794;48.592;9.634;2023-05-10T15:04:09;16.10;1.00
1602;DHT22;794;48.592;9.634;2023-05-10T15:06:36;15.80;1.00
1602;DHT22;794;48.592;9.634;2023-05-10T15:09:03;15.80;1.00
1602;DHT22;794;48.592;9.634;2023-05-10T15:11:30;15.90;1.00
1602;DHT22;794;48.592;9.634;2023-05-10T15:13:57;16.00;1.00
1602;DHT22;794;48.592;9.634;2023-05-10T15:16:24;16.00;1.00
1602;DHT22;794;48.592;9.634;2023-05-10T15:18:51;16.20;1.00
1602;DHT22;794;48.592;9.634;2023-05-10T15:21:19;16.30;1.00
1602;DHT22;794;48.592;9.634;2023-05-10T15:26:14;16.10;1.00
1602;DHT22;794;48.592;9.634;2023-05-10T15:28:41;16.20;1.00
1602;DHT22;794;48.592;9.634;2023-05-10T15:31:08;16.30;1.00
1602;DHT22;794;48.592;9.634;2023-05-10T15:33:37;16.20;1.00
1602;DHT22;794;48.592;9.634;2023-05-10T15:36:04;16.40;1.00
1602;DHT22;794;48.592;9.634;2023-05-10T15:38:33;16.50;1.00
1602;DHT22;794;48.592;9.634;2023-05-10T15:41:00;16.60;1.00
1602;DHT22;794;48.592;9.634;2023-05-10T15:45:54;16.70;1.00
1602;DHT22;794;48.592;9.634;2023-05-10T15:48:21;16.60;1.00
1602;DHT22;794;48.592;9.634;2023-05-10T15:50:48;16.80;1.00
1602;DHT22;794;48.592;9.634;2023-05-10T15:53:15;16.70;1.00
1602;DHT22;794;48.592;9.634;2023-05-10T15:55:43;16.70;1.00
1602;DHT22;794;48.592;9.634;2023-05-10T15:58:10;16.40;1.00
1602;DHT22;794;48.592;9.634;2023-05-10T16:03:04;16.40;1.00
1602;DHT22;794;48.592;9.634;2023-05-10T16:05:31;16.20;1.00
1602;DHT22;794;48.592;9.634;2023-05-10T16:07:58;15.70;1.00
1602;DHT22;794;48.592;9.634;2023-05-10T16:10:26;16.00;1.00
1602;DHT22;794;48.592;9.634;2023-05-10T16:12:55;15.80;1.00
1602;DHT22;794;48.592;9.634;2023-05-10T16:15:22;16.10;1.00
1602;DHT22;794;48.592;9.634;2023-05-10T16:17:48;16.20;1.00
1602;DHT22;794;48.592;9.634;2023-05-10T16:20:15;15.90;1.00
1602;DHT22;794;48.592;9.634;2023-05-10T16:22:42;15.80;1.00
1602;DHT22;794;48.592;9.634;2023-05-10T16:25:09;15.90;1.00
1602;DHT22;794;48.592;9.634;2023-05-10T16:27:38;15.90;1.00
1602;DHT22;794;48.592;9.634;2023-05-10T16:30:07;15.80;1.00
1602;DHT22;794;48.592;9.634;2023-05-10T16:32:34;15.80;1.00
1602;DHT22;794;48.592;9.634;2023-05-10T16:35:01;15.70;1.00
1602;DHT22;794;48.592;9.634;2023-05-10T16:37:29;15.70;1.00
1602;DHT22;794;48.592;9.634;2023-05-10T16:39:56;15.50;1.00
1602;DHT22;794;48.592;9.634;2023-05-10T16:42:22;15.30;1.00
1602;DHT22;794;48.592;9.634;2023-05-10T16:44:50;15.20;1.00
1602;DHT22;794;48.592;9.634;2023-05-10T16:47:18;15.60;1.00
1602;DHT22;794;48.592;9.634;2023-05-10T16:49:45;15.10;1.00
1602;DHT22;794;48.592;9.634;2023-05-10T16:52:12;15.00;1.00
1602;DHT22;794;48.592;9.634;2023-05-10T16:54:39;15.00;1.00
1602;DHT22;794;48.592;9.634;2023-05-10T16:57:06;15.00;1.00
1602;DHT22;794;48.592;9.634;2023-05-10T16:59:34;14.90;1.00
1602;DHT22;794;48.592;9.634;2023-05-10T17:02:00;16.00;1.00
1602;DHT22;794;48.592;9.634;2023-05-10T17:04:29;15.00;1.00
1602;DHT22;794;48.592;9.634;2023-05-10T17:06:56;14.90;1.00
1602;DHT22;794;48.592;9.634;2023-05-10T17:09:23;14.90;1.00
1602;DHT22;794;48.592;9.634;2023-05-10T17:11:50;14.90;1.00
1602;DHT22;794;48.592;9.634;2023-05-10T17:14:17;14.70;1.00
1602;DHT22;794;48.592;9.634;2023-05-10T17:16:44;12.80;1.00
1602;DHT22;794;48.592;9.634;2023-05-10T17:19:12;14.50;1.00
1602;DHT22;794;48.592;9.634;2023-05-10T17:21:40;14.30;1.00
1602;DHT22;794;48.592;9.634;2023-05-10T17:24:07;14.30;1.00
1602;DHT22;794;48.592;9.634;2023-05-10T17:26:34;14.20;1.00
1602;DHT22;794;48.592;9.634;2023-05-10T17:29:01;14.10;1.00
1602;DHT22;794;48.592;9.634;2023-05-10T17:31:29;14.20;1.00
1602;DHT22;794;48.592;9.634;2023-05-10T17:33:57;14.30;1.00
1602;DHT22;794;48.592;9.634;2023-05-10T17:36:24;14.20;1.00
1602;DHT22;794;48.592;9.634;2023-05-10T17:38:54;14.10;1.00
1602;DHT22;794;48.592;9.634;2023-05-10T17:41:21;13.90;1.00
1602;DHT22;794;48.592;9.634;2023-05-10T17:43:49;13.60;1.00
1602;DHT22;794;48.592;9.634;2023-05-10T17:46:15;13.60;1.00
1602;DHT22;794;48.592;9.634;2023-05-10T17:48:42;13.40;1.00
1602;DHT22;794;48.592;9.634;2023-05-10T17:51:09;13.50;1.00
1602;DHT22;794;48.592;9.634;2023-05-10T17:53:38;13.50;1.00
1602;DHT22;794;48.592;9.634;2023-05-10T17:56:06;13.60;1.00
1602;DHT22;794;48.592;9.634;2023-05-10T17:58:34;12.90;1.00
1602;DHT22;794;48.592;9.634;2023-05-10T18:01:03;13.50;1.00
1602;DHT22;794;48.592;9.634;2023-05-10T18:03:33;12.50;1.00
1602;DHT22;794;48.592;9.634;2023-05-10T18:06:01;13.50;1.00
1602;DHT22;794;48.592;9.634;2023-05-10T18:08:28;13.60;1.00
1602;DHT22;794;48.592;9.634;2023-05-10T18:10:55;13.40;1.00